Time;durP1;ratioP1;P1;durP2;ratioP2;P2;SDS_P1;SDS_P2;PMS_P1;PMS_P2;Temp;Humidity;BMP_temperature;BMP_pressure;BME280_temperature;BME280_humidity;BME280_pressure;Samples;Min_cycle;Max_cycle;Signal;HPM_P1;HPM_P2
2023/05/20 00:00:33;;;;;;;7.43;6.03;;;18.40;76.30;;;;;;5031938;28;20387;-75
2023/05/20 00:02:59;;;;;;;8.35;5.75;;;18.40;75.50;;;;;;5033297;28;20056;-75
2023/05/20 00:05:25;;;;;;;6.85;5.63;;;18.40;75.00;;;;;;5013178;28;20505;-74
2023/05/20 00:07:51;;;;;;;7.90;5.75;;;18.40;75.70;;;;;;5033166;28;20477;-74
2023/05/20 00:10:17;;;;;;;6.47;4.72;;;18.40;75.70;;;;;;5033255;28;20029;-74
2023/05/20 00:12:43;;;;;;;6.72;4.40;;;18.40;75.70;;;;;;5033404;28;20389;-74
2023/05/20 00:15:10;;;;;;;5.57;3.88;;;18.40;75.70;;;;;;5032976;28;20053;-74
2023/05/20 00:17:37;;;;;;;4.35;3.45;;;18.40;75.70;;;;;;5033159;28;20389;-74
2023/05/20 00:20:04;;;;;;;4.65;3.28;;;18.40;76.00;;;;;;5033024;28;20056;-74
2023/05/20 00:22:30;;;;;;;4.85;3.20;;;18.40;76.10;;;;;;5033017;28;20423;-75
2023/05/20 00:24:55;;;;;;;3.63;3.15;;;18.40;76.00;;;;;;5032980;28;20105;-75
2023/05/20 00:27:21;;;;;;;3.67;3.25;;;18.50;76.20;;;;;;5033045;28;20033;-74
2023/05/20 00:29:47;;;;;;;3.92;3.50;;;18.50;76.40;;;;;;5033205;28;20088;-74
2023/05/20 00:32:13;;;;;;;3.63;3.22;;;18.50;76.40;;;;;;5032829;28;20061;-74
2023/05/20 00:34:39;;;;;;;4.43;3.30;;;18.50;76.50;;;;;;5014655;28;20042;-74
2023/05/20 00:37:05;;;;;;;5.32;3.45;;;18.40;76.50;;;;;;5032830;28;20037;-75
2023/05/20 00:39:30;;;;;;;5.18;3.30;;;18.40;76.80;;;;;;5032590;28;20028;-74
2023/05/20 00:41:59;;;;;;;3.60;3.30;;;18.50;76.70;;;;;;5032847;28;20026;-74
2023/05/20 00:44:25;;;;;;;5.20;3.38;;;18.50;76.80;;;;;;5032817;28;20025;-75
2023/05/20 00:46:52;;;;;;;4.63;3.80;;;18.50;76.90;;;;;;5032720;28;20403;-73
2023/05/20 00:49:18;;;;;;;6.13;3.53;;;18.40;76.90;;;;;;5011945;28;20060;-74
2023/05/20 00:51:45;;;;;;;4.57;3.72;;;18.40;76.90;;;;;;5014739;28;20057;-75
2023/05/20 00:54:11;;;;;;;5.70;4.03;;;18.40;77.00;;;;;;5032708;28;20564;-73
2023/05/20 00:56:37;;;;;;;5.88;3.63;;;18.40;77.40;;;;;;5032613;28;20048;-74
2023/05/20 00:59:04;;;;;;;5.25;4.22;;;18.30;77.20;;;;;;5030298;28;20037;-73
2023/05/20 01:01:29;;;;;;;5.78;3.80;;;18.30;77.30;;;;;;5030262;28;20486;-74
2023/05/20 01:03:55;;;;;;;4.53;3.45;;;18.30;77.50;;;;;;5034261;28;20071;-73
2023/05/20 01:06:21;;;;;;;6.40;3.85;;;18.30;77.80;;;;;;5036327;28;20075;-74
2023/05/20 01:08:47;;;;;;;5.82;4.50;;;18.20;78.20;;;;;;5036463;28;20100;-74
2023/05/20 01:11:28;;;;;;;4.53;3.80;;;18.20;78.30;;;;;;5036544;28;20101;-74
2023/05/20 01:14:05;;;;;;;5.25;4.10;;;18.20;78.50;;;;;;5029172;28;20024;-74
2023/05/20 01:16:32;;;;;;;7.57;3.70;;;18.20;78.30;;;;;;5035683;28;20478;-74
2023/05/20 01:19:01;;;;;;;4.20;3.30;;;18.20;78.20;;;;;;5036521;28;20024;-74
2023/05/20 01:21:29;;;;;;;4.70;3.58;;;18.20;78.30;;;;;;5035917;28;20033;-73
2023/05/20 01:23:55;;;;;;;5.05;3.78;;;18.20;78.40;;;;;;5036154;28;20083;-73
2023/05/20 01:26:25;;;;;;;6.78;3.90;;;18.10;78.90;;;;;;5035920;28;20018;-74
2023/05/20 01:28:52;;;;;;;5.72;3.63;;;18.10;78.90;;;;;;5035852;28;20524;-73
2023/05/20 01:31:22;;;;;;;6.28;3.92;;;18.10;79.50;;;;;;5035963;28;20021;-75
2023/05/20 01:33:53;;;;;;;4.10;3.70;;;18.10;79.90;;;;;;5035834;28;20053;-75
2023/05/20 01:36:20;;;;;;;5.57;4.13;;;18.10;80.20;;;;;;5014784;28;20038;-74
2023/05/20 01:38:47;;;;;;;4.20;3.80;;;18.10;80.50;;;;;;5036019;28;20029;-74
2023/05/20 01:41:13;;;;;;;6.03;4.22;;;18.10;80.70;;;;;;5035718;28;20057;-74
2023/05/20 01:43:39;;;;;;;4.78;3.70;;;18.00;80.50;;;;;;5035539;28;20036;-75
2023/05/20 01:46:06;;;;;;;4.60;4.07;;;18.00;80.40;;;;;;5035447;28;20045;-74
2023/05/20 01:48:31;;;;;;;5.03;3.65;;;18.00;80.70;;;;;;5035807;28;20028;-75
2023/05/20 01:50:57;;;;;;;4.88;3.72;;;18.00;80.50;;;;;;5035690;28;20021;-74
2023/05/20 01:53:23;;;;;;;5.35;3.63;;;17.90;80.10;;;;;;5035541;28;20025;-74
2023/05/20 01:55:49;;;;;;;6.03;3.67;;;17.90;80.30;;;;;;5014441;28;20026;-74
2023/05/20 01:58:14;;;;;;;6.78;3.92;;;17.90;80.40;;;;;;5031656;28;20052;-74
2023/05/20 02:00:40;;;;;;;3.85;3.45;;;17.90;80.20;;;;;;5035384;28;20056;-74
2023/05/20 02:03:06;;;;;;;5.53;4.32;;;17.80;81.20;;;;;;5035560;28;20037;-74
2023/05/20 02:05:32;;;;;;;8.50;4.72;;;17.80;81.10;;;;;;5035559;28;20025;-74
2023/05/20 02:07:57;;;;;;;7.03;4.63;;;17.80;81.00;;;;;;5035296;28;20033;-75
2023/05/20 02:10:23;;;;;;;5.20;4.03;;;17.80;81.00;;;;;;5035203;28;20036;-74
2023/05/20 02:12:49;;;;;;;6.47;4.40;;;17.80;80.80;;;;;;5035280;28;20124;-74
2023/05/20 02:15:15;;;;;;;5.03;4.10;;;17.80;81.20;;;;;;5014297;28;20029;-74
2023/05/20 02:17:42;;;;;;;6.22;4.38;;;17.90;81.30;;;;;;5034669;28;20038;-74
2023/05/20 02:20:09;;;;;;;6.75;5.00;;;17.90;82.20;;;;;;5035457;28;20024;-74
2023/05/20 02:22:35;;;;;;;8.52;4.45;;;17.90;82.30;;;;;;5035301;28;20037;-75
2023/05/20 02:25:01;;;;;;;6.78;4.47;;;17.80;82.60;;;;;;5035241;28;20504;-74
2023/05/20 02:27:26;;;;;;;6.80;4.20;;;17.80;82.20;;;;;;5035111;28;20037;-75
2023/05/20 02:29:52;;;;;;;6.72;4.18;;;17.90;81.90;;;;;;5034885;28;20022;-74
2023/05/20 02:32:19;;;;;;;6.15;3.95;;;17.80;82.50;;;;;;5014520;28;20113;-74
2023/05/20 02:34:45;;;;;;;5.88;4.38;;;17.80;82.30;;;;;;5034790;28;20030;-75
2023/05/20 02:37:11;;;;;;;4.78;4.28;;;17.90;82.10;;;;;;5034985;28;20087;-75
2023/05/20 02:39:36;;;;;;;6.43;4.30;;;17.90;82.60;;;;;;5035009;28;20032;-76
2023/05/20 02:42:03;;;;;;;5.07;4.38;;;17.90;83.20;;;;;;5035359;28;20048;-74
2023/05/20 02:44:29;;;;;;;7.28;4.60;;;17.80;82.80;;;;;;5016950;28;20388;-75
2023/05/20 02:46:55;;;;;;;7.53;4.18;;;17.80;83.00;;;;;;5034707;28;20101;-75
2023/05/20 02:49:20;;;;;;;9.18;4.57;;;17.80;82.80;;;;;;5034626;28;20433;-74
2023/05/20 02:51:46;;;;;;;8.18;5.35;;;17.90;82.30;;;;;;5034904;28;20044;-74
2023/05/20 02:54:12;;;;;;;7.50;5.40;;;17.90;81.60;;;;;;5034727;28;20071;-74
2023/05/20 02:56:38;;;;;;;6.43;5.82;;;17.90;81.70;;;;;;5034607;28;20025;-74
2023/05/20 02:59:06;;;;;;;10.13;5.35;;;17.90;81.60;;;;;;5034482;28;20029;-74
2023/05/20 03:01:34;;;;;;;5.53;4.93;;;18.00;81.50;;;;;;5034562;28;20083;-74
2023/05/20 03:04:01;;;;;;;6.82;4.80;;;18.00;81.80;;;;;;5034450;28;20022;-74
2023/05/20 03:06:28;;;;;;;8.13;4.70;;;17.90;82.00;;;;;;5034369;28;20105;-74
2023/05/20 03:08:54;;;;;;;8.57;4.65;;;18.00;82.50;;;;;;5034394;28;20465;-74
2023/05/20 03:11:20;;;;;;;6.78;4.68;;;18.00;82.50;;;;;;5034306;28;20064;-74
2023/05/20 03:13:46;;;;;;;6.38;4.47;;;17.90;82.70;;;;;;5033932;28;20064;-76
2023/05/20 03:16:12;;;;;;;5.30;4.70;;;17.90;82.40;;;;;;5033986;28;20053;-74
2023/05/20 03:18:38;;;;;;;7.15;4.60;;;18.00;82.30;;;;;;5033955;28;20041;-74
2023/05/20 03:21:04;;;;;;;8.30;5.50;;;17.90;82.40;;;;;;5033718;28;20036;-74
2023/05/20 03:23:29;;;;;;;7.75;6.05;;;17.90;82.40;;;;;;5033973;28;20033;-74
2023/05/20 03:25:55;;;;;;;6.90;6.20;;;17.90;81.80;;;;;;5033346;28;20017;-75
2023/05/20 03:28:21;;;;;;;7.60;6.22;;;18.00;81.60;;;;;;5033955;28;20103;-74
2023/05/20 03:30:46;;;;;;;6.90;6.20;;;18.00;81.50;;;;;;5033799;28;20021;-74
2023/05/20 03:33:14;;;;;;;7.38;5.75;;;18.10;81.40;;;;;;5033568;28;20093;-74
2023/05/20 03:35:40;;;;;;;8.32;6.35;;;18.10;81.40;;;;;;5033423;28;20044;-74
2023/05/20 03:38:06;;;;;;;7.97;5.95;;;18.10;81.30;;;;;;5033575;28;20029;-75
2023/05/20 03:40:32;;;;;;;8.48;5.88;;;18.10;82.20;;;;;;5033580;28;20100;-73
2023/05/20 03:42:57;;;;;;;8.98;5.90;;;18.10;81.60;;;;;;5033722;28;20104;-74
2023/05/20 03:45:23;;;;;;;10.30;6.15;;;18.10;81.50;;;;;;5033532;28;20026;-75
2023/05/20 03:47:49;;;;;;;9.13;5.78;;;18.10;81.50;;;;;;5033575;28;20041;-74
2023/05/20 03:50:15;;;;;;;6.88;5.68;;;18.20;81.80;;;;;;5033344;28;20030;-74
2023/05/20 03:52:41;;;;;;;10.30;5.50;;;18.10;82.00;;;;;;5033545;28;20104;-74
2023/05/20 03:55:07;;;;;;;8.38;5.50;;;18.10;82.10;;;;;;5032965;28;20033;-74
2023/05/20 03:57:32;;;;;;;7.55;5.40;;;18.10;82.30;;;;;;5032941;28;20029;-74
2023/05/20 03:59:58;;;;;;;11.38;5.68;;;18.20;82.50;;;;;;5033297;28;20104;-74
2023/05/20 04:02:24;;;;;;;9.75;5.50;;;18.10;82.60;;;;;;5033116;28;20067;-75
2023/05/20 04:04:56;;;;;;;7.80;5.47;;;18.10;82.90;;;;;;5033186;28;20033;-74
2023/05/20 04:07:22;;;;;;;6.82;5.45;;;18.10;83.00;;;;;;5033122;28;20029;-74
2023/05/20 04:09:48;;;;;;;8.57;5.70;;;18.10;82.90;;;;;;5032962;28;20049;-73
2023/05/20 04:12:14;;;;;;;16.30;5.88;;;18.10;83.10;;;;;;5033168;28;20437;-75
2023/05/20 04:14:41;;;;;;;6.78;5.72;;;18.10;83.00;;;;;;5033402;28;20116;-73
2023/05/20 04:17:06;;;;;;;9.73;8.07;;;18.10;83.20;;;;;;5015210;28;20128;-74
2023/05/20 04:19:33;;;;;;;9.52;6.20;;;18.10;83.20;;;;;;5032922;28;20426;-74
2023/05/20 04:22:00;;;;;;;7.72;5.85;;;18.10;83.40;;;;;;5032960;28;20033;-74
2023/05/20 04:24:26;;;;;;;8.77;5.88;;;18.10;83.50;;;;;;5032800;28;20124;-74
2023/05/20 04:26:52;;;;;;;9.18;5.93;;;18.20;83.50;;;;;;5032911;28;20055;-74
2023/05/20 04:29:18;;;;;;;6.85;6.03;;;18.20;83.40;;;;;;5032877;28;20097;-74
2023/05/20 04:31:47;;;;;;;7.13;5.78;;;18.20;83.40;;;;;;5032863;28;20030;-75
2023/05/20 04:34:13;;;;;;;8.27;5.80;;;18.20;83.50;;;;;;5032858;28;20052;-73
2023/05/20 04:36:39;;;;;;;6.90;5.47;;;18.20;83.50;;;;;;5031739;28;20087;-74
2023/05/20 04:39:06;;;;;;;7.75;6.25;;;18.20;83.40;;;;;;5032863;28;20018;-74
2023/05/20 04:41:32;;;;;;;6.93;5.93;;;18.20;83.20;;;;;;5032890;28;20029;-74
2023/05/20 04:44:01;;;;;;;7.03;5.93;;;18.20;82.90;;;;;;5032780;28;20014;-75
2023/05/20 04:46:27;;;;;;;6.65;5.95;;;18.20;82.50;;;;;;5032861;28;20537;-74
2023/05/20 04:48:52;;;;;;;7.65;6.25;;;18.30;82.00;;;;;;5032508;28;20096;-74
2023/05/20 04:51:19;;;;;;;8.63;5.97;;;18.30;81.80;;;;;;5032517;28;20026;-74
2023/05/20 04:53:44;;;;;;;6.10;5.45;;;18.30;81.50;;;;;;5032659;28;20053;-74
2023/05/20 04:56:12;;;;;;;6.88;6.10;;;18.40;81.50;;;;;;5032541;28;20134;-74
2023/05/20 04:58:38;;;;;;;6.05;5.45;;;18.40;81.40;;;;;;5032602;28;20080;-74
2023/05/20 05:01:04;;;;;;;7.35;6.32;;;18.40;81.70;;;;;;5032733;28;20029;-74
2023/05/20 05:03:30;;;;;;;8.07;5.90;;;18.40;81.90;;;;;;5032359;28;20056;-74
2023/05/20 05:05:57;;;;;;;8.30;5.82;;;18.50;82.30;;;;;;5032560;28;20466;-74
2023/05/20 05:08:23;;;;;;;8.43;6.35;;;18.50;82.60;;;;;;5032265;28;20533;-74
2023/05/20 05:10:49;;;;;;;8.60;5.45;;;18.50;82.70;;;;;;5032523;28;20101;-74
2023/05/20 05:13:14;;;;;;;9.68;5.82;;;18.50;83.10;;;;;;5032489;28;20026;-74
2023/05/20 05:15:40;;;;;;;9.63;6.40;;;18.50;83.40;;;;;;5032403;28;20114;-74
2023/05/20 05:18:06;;;;;;;10.05;6.30;;;18.50;83.40;;;;;;5032529;28;20067;-74
2023/05/20 05:20:32;;;;;;;7.88;5.68;;;18.50;83.60;;;;;;5031706;28;20056;-73
2023/05/20 05:22:58;;;;;;;8.82;5.60;;;18.50;84.40;;;;;;5032261;28;20032;-74
2023/05/20 05:25:23;;;;;;;6.53;5.65;;;18.50;83.90;;;;;;5032290;28;20029;-73
2023/05/20 05:27:49;;;;;;;7.35;6.00;;;18.60;83.80;;;;;;5032406;28;20025;-74
2023/05/20 05:30:15;;;;;;;6.78;5.70;;;18.60;83.90;;;;;;5032253;28;20105;-74
2023/05/20 05:32:41;;;;;;;9.18;6.18;;;18.60;83.70;;;;;;5031878;28;20045;-74
2023/05/20 05:35:07;;;;;;;9.10;5.85;;;18.60;83.50;;;;;;5032042;28;20046;-74
2023/05/20 05:37:33;;;;;;;9.48;6.32;;;18.60;84.00;;;;;;5032163;28;20037;-74
2023/05/20 05:39:59;;;;;;;6.95;5.93;;;18.60;84.20;;;;;;5032405;28;20021;-74
2023/05/20 05:42:24;;;;;;;7.72;6.18;;;18.60;84.80;;;;;;5032705;28;20110;-74
2023/05/20 05:44:50;;;;;;;11.93;6.25;;;18.60;84.60;;;;;;5032147;28;20036;-74
2023/05/20 05:47:16;;;;;;;6.32;5.72;;;18.60;83.50;;;;;;5031769;28;20022;-74
2023/05/20 05:49:42;;;;;;;9.10;6.25;;;18.70;83.40;;;;;;5035736;28;20100;-74
2023/05/20 05:52:08;;;;;;;7.07;5.82;;;18.70;83.40;;;;;;5036049;28;20061;-73
2023/05/20 05:54:34;;;;;;;8.20;6.60;;;18.70;83.40;;;;;;5035845;28;20488;-74
2023/05/20 05:57:00;;;;;;;12.20;6.97;;;18.70;83.50;;;;;;5035905;28;20083;-75
2023/05/20 05:59:25;;;;;;;7.95;6.97;;;18.80;83.70;;;;;;5035735;28;20728;-77
2023/05/20 06:01:51;;;;;;;8.68;6.72;;;18.70;84.40;;;;;;5035383;28;20034;-74
2023/05/20 06:04:17;;;;;;;11.35;6.03;;;18.80;84.60;;;;;;5035332;28;20033;-74
2023/05/20 06:06:43;;;;;;;9.77;6.75;;;18.80;84.00;;;;;;5035470;28;20470;-74
2023/05/20 06:09:08;;;;;;;10.07;6.95;;;18.90;83.50;;;;;;5035566;28;20045;-74
2023/05/20 06:11:34;;;;;;;11.43;7.53;;;18.90;83.60;;;;;;5035536;28;20040;-78
2023/05/20 06:14:00;;;;;;;7.82;7.00;;;18.90;83.70;;;;;;5035368;28;20452;-76
2023/05/20 06:16:26;;;;;;;10.35;6.97;;;18.90;83.70;;;;;;5035311;28;20469;-78
2023/05/20 06:18:55;;;;;;;17.13;7.88;;;19.00;83.20;;;;;;5034944;28;20029;-76
2023/05/20 06:21:21;;;;;;;12.07;8.80;;;19.00;83.50;;;;;;5035211;28;20163;-76
2023/05/20 06:23:47;;;;;;;13.25;9.02;;;19.10;82.90;;;;;;5035433;28;20029;-77
2023/05/20 06:26:13;;;;;;;10.63;8.55;;;19.10;82.60;;;;;;5033867;28;20025;-77
2023/05/20 06:28:39;;;;;;;13.50;9.07;;;19.10;82.50;;;;;;5033243;28;20100;-77
2023/05/20 06:31:05;;;;;;;11.73;8.93;;;19.10;82.20;;;;;;5035292;28;20029;-78
2023/05/20 06:33:31;;;;;;;12.85;8.80;;;19.10;82.10;;;;;;5034964;28;20489;-79
2023/05/20 06:35:57;;;;;;;11.32;9.80;;;19.20;82.20;;;;;;5034897;28;20152;-78
2023/05/20 06:38:23;;;;;;;20.45;10.65;;;19.20;81.50;;;;;;5034089;28;20022;-78
2023/05/20 06:40:50;;;;;;;11.85;10.65;;;19.20;81.70;;;;;;5035190;28;20452;-78
2023/05/20 06:43:16;;;;;;;14.70;10.40;;;19.20;82.20;;;;;;5034642;28;20060;-78
2023/05/20 06:45:42;;;;;;;16.80;11.02;;;19.20;81.80;;;;;;5035060;28;20478;-76
2023/05/20 06:48:09;;;;;;;13.35;11.13;;;19.30;81.90;;;;;;5033218;28;20032;-79
2023/05/20 06:50:35;;;;;;;14.15;11.70;;;19.30;82.40;;;;;;5034555;28;20032;-78
2023/05/20 06:53:00;;;;;;;15.15;12.30;;;19.30;81.60;;;;;;5034857;28;20025;-78
2023/05/20 06:55:26;;;;;;;14.60;11.10;;;19.30;81.70;;;;;;5034901;28;20028;-78
2023/05/20 06:57:52;;;;;;;13.73;12.05;;;19.30;82.00;;;;;;5017142;28;20489;-78
2023/05/20 07:00:18;;;;;;;14.50;12.35;;;19.30;82.00;;;;;;5031022;28;20020;-77
2023/05/20 07:02:44;;;;;;;16.73;13.40;;;19.30;82.10;;;;;;5031493;28;20112;-82
2023/05/20 07:05:11;;;;;;;12.52;11.32;;;19.30;82.00;;;;;;5031958;28;20029;-78
2023/05/20 07:07:37;;;;;;;14.30;11.68;;;19.30;82.10;;;;;;5033885;28;20036;-78
2023/05/20 07:10:04;;;;;;;12.90;11.48;;;19.30;82.10;;;;;;5034734;28;20022;-79
2023/05/20 07:12:31;;;;;;;12.38;11.05;;;19.40;82.10;;;;;;5034681;28;20420;-79
2023/05/20 07:14:57;;;;;;;12.82;11.20;;;19.40;81.70;;;;;;5034030;28;20478;-78
2023/05/20 07:17:23;;;;;;;15.60;10.15;;;19.40;82.30;;;;;;5033706;28;20082;-78
2023/05/20 07:19:49;;;;;;;15.48;10.80;;;19.40;82.00;;;;;;5034803;28;20100;-79
2023/05/20 07:22:15;;;;;;;11.05;9.85;;;19.40;81.70;;;;;;5034748;28;20033;-79
2023/05/20 07:24:41;;;;;;;13.90;10.90;;;19.50;81.40;;;;;;5047930;28;20024;-77
2023/05/20 07:27:07;;;;;;;14.07;11.57;;;19.50;81.40;;;;;;5055257;28;20093;-76
2023/05/20 07:29:36;;;;;;;13.90;10.52;;;19.50;81.20;;;;;;5042605;28;20028;-79
2023/05/20 07:32:04;;;;;;;18.83;12.27;;;19.60;81.50;;;;;;5034319;28;20025;-79
2023/05/20 07:34:30;;;;;;;17.10;12.07;;;19.60;82.20;;;;;;5032678;22;20050;-78
2023/05/20 07:36:57;;;;;;;13.32;11.93;;;19.70;81.60;;;;;;5014726;28;20042;-79
2023/05/20 07:39:23;;;;;;;13.73;11.85;;;19.70;81.10;;;;;;5014778;28;20026;-79
2023/05/20 07:41:49;;;;;;;14.82;11.38;;;19.80;81.30;;;;;;5014516;28;20069;-79
2023/05/20 07:44:17;;;;;;;15.85;9.57;;;19.90;81.00;;;;;;4996849;28;20389;-79
2023/05/20 07:46:44;;;;;;;9.88;7.65;;;20.00;80.60;;;;;;5014690;28;20124;-79
2023/05/20 07:49:10;;;;;;;13.27;8.00;;;20.10;80.40;;;;;;5014620;28;20061;-79
2023/05/20 07:52:32;;;;;;;11.02;8.48;;;20.20;80.60;;;;;;5014335;28;20026;-79
2023/05/20 07:58:34;;;;;;;13.63;6.85;;;20.40;78.90;;;;;;4905616;29;20040;-79
2023/05/20 08:01:00;;;;;;;12.18;6.90;;;20.50;78.70;;;;;;4915476;29;20083;-80
2023/05/20 08:03:41;;;;;;;9.77;7.07;;;20.50;78.30;;;;;;4915266;29;20032;-79
2023/05/20 08:06:34;;;;;;;8.38;7.35;;;20.50;77.50;;;;;;4914862;29;20044;-79
2023/05/20 08:12:18;;;;;;;9.38;6.97;;;20.60;75.80;;;;;;4877081;29;19955;-79
2023/05/20 08:14:57;;;;;;;13.68;7.50;;;20.70;75.90;;;;;;4893982;29;20544;-79
2023/05/20 08:17:44;;;;;;;10.07;7.20;;;20.70;75.10;;;;;;4895467;29;20051;-79
2023/05/20 08:20:11;;;;;;;12.48;7.72;;;20.70;75.00;;;;;;4969461;28;20054;-79
2023/05/20 08:22:37;;;;;;;9.60;7.97;;;20.70;74.50;;;;;;4994920;28;20434;-79
2023/05/20 08:25:06;;;;;;;9.38;7.38;;;20.70;74.00;;;;;;5013302;28;20389;-79
2023/05/20 08:27:32;;;;;;;8.52;7.60;;;20.70;74.10;;;;;;5013401;28;20033;-79
2023/05/20 08:29:58;;;;;;;12.77;7.60;;;20.80;74.20;;;;;;5013446;28;20029;-79
2023/05/20 08:32:25;;;;;;;13.30;7.38;;;20.80;74.30;;;;;;5013081;28;20061;-79
2023/05/20 08:34:50;;;;;;;8.38;7.13;;;20.80;75.30;;;;;;5013069;28;20378;-79
2023/05/20 08:37:16;;;;;;;13.20;7.22;;;20.80;75.50;;;;;;5012866;28;20037;-79
2023/05/20 08:39:45;;;;;;;14.63;6.90;;;20.90;75.80;;;;;;5013302;28;20112;-79
2023/05/20 08:42:12;;;;;;;9.32;6.82;;;21.00;74.80;;;;;;5013026;28;20490;-79
2023/05/20 08:44:40;;;;;;;13.05;6.60;;;21.10;75.00;;;;;;5013254;28;20049;-79
2023/05/20 08:47:07;;;;;;;7.20;6.32;;;21.20;74.30;;;;;;5013281;28;20382;-79
2023/05/20 08:49:33;;;;;;;9.80;6.43;;;21.30;72.80;;;;;;5013178;28;20382;-79
2023/05/20 08:52:00;;;;;;;11.60;6.35;;;21.40;72.30;;;;;;5012771;28;20022;-79
2023/05/20 08:54:43;;;;;;;9.38;6.47;;;21.50;72.00;;;;;;5012965;28;20068;-78
2023/05/20 08:57:12;;;;;;;7.47;6.15;;;21.50;72.40;;;;;;4994802;28;20041;-79
2023/05/20 08:59:45;;;;;;;7.43;6.20;;;21.60;72.20;;;;;;5012875;28;20029;-80
2023/05/20 09:02:12;;;;;;;7.38;6.03;;;21.60;71.50;;;;;;5013086;28;20025;-79
2023/05/20 09:04:38;;;;;;;9.40;6.25;;;21.70;72.20;;;;;;4995108;28;20036;-79
2023/05/20 09:07:04;;;;;;;9.90;6.38;;;21.70;71.80;;;;;;4995030;28;20109;-79
2023/05/20 09:09:32;;;;;;;9.77;6.28;;;21.80;70.30;;;;;;5012915;28;20077;-80
2023/05/20 09:11:59;;;;;;;9.98;6.38;;;21.80;69.70;;;;;;5012683;28;20585;-79
2023/05/20 09:14:27;;;;;;;7.68;5.68;;;21.80;70.30;;;;;;4995570;28;20112;-79
2023/05/20 09:16:53;;;;;;;8.00;6.22;;;21.90;70.50;;;;;;5013243;28;20492;-79
2023/05/20 09:19:22;;;;;;;8.52;6.00;;;21.80;70.30;;;;;;5013076;28;20022;-79
2023/05/20 09:21:50;;;;;;;10.98;5.85;;;21.90;70.30;;;;;;5012682;28;20109;-79
2023/05/20 09:24:21;;;;;;;10.32;7.03;;;21.90;70.40;;;;;;5015478;28;20030;-78
2023/05/20 09:26:47;;;;;;;13.00;6.27;;;21.90;70.60;;;;;;5017442;28;20030;-78
2023/05/20 09:29:13;;;;;;;10.02;5.78;;;22.00;70.40;;;;;;5017056;28;20267;-78
2023/05/20 09:31:39;;;;;;;9.02;5.95;;;22.10;70.00;;;;;;5016976;28;20077;-79
2023/05/20 09:34:06;;;;;;;8.98;6.05;;;22.10;69.70;;;;;;5016410;28;20378;-79
2023/05/20 09:36:34;;;;;;;12.25;6.68;;;22.10;69.90;;;;;;5017219;28;20034;-78
2023/05/20 09:39:03;;;;;;;10.52;5.82;;;22.10;70.00;;;;;;5017123;28;20420;-79
2023/05/20 09:47:50;;;;;;;7.60;5.43;;;22.10;69.90;;;;;;4945899;28;20078;-78
2023/05/20 09:50:20;;;;;;;10.13;5.30;;;22.10;69.30;;;;;;5016076;28;20072;-76
2023/05/20 09:52:48;;;;;;;11.48;5.43;;;22.10;68.40;;;;;;5016422;28;20045;-77
2023/05/20 09:55:16;;;;;;;7.97;6.00;;;22.10;67.60;;;;;;5016362;28;20394;-78
2023/05/20 09:57:42;;;;;;;10.52;5.70;;;22.10;67.50;;;;;;5015888;28;20050;-78
2023/05/20 10:00:28;;;;;;;7.95;6.15;;;22.00;68.30;;;;;;5015841;28;20359;-78
2023/05/20 10:03:00;;;;;;;13.30;5.47;;;22.00;68.60;;;;;;5015642;28;20064;-78
2023/05/20 10:05:31;;;;;;;8.57;5.63;;;22.00;68.10;;;;;;5015827;28;20030;-77
2023/05/20 10:08:19;;;;;;;12.33;6.27;;;22.00;67.70;;;;;;5015846;28;20359;-78
2023/05/20 10:10:51;;;;;;;12.40;5.57;;;22.00;68.10;;;;;;5015651;28;20362;-76
2023/05/20 10:13:22;;;;;;;7.78;5.53;;;22.10;68.40;;;;;;5015887;28;20412;-78
2023/05/20 10:16:12;;;;;;;14.45;6.65;;;22.20;68.80;;;;;;5015927;28;20060;-77
2023/05/20 10:18:56;;;;;;;11.15;6.20;;;22.20;68.30;;;;;;4998101;28;20034;-78
2023/05/20 10:21:23;;;;;;;11.13;6.30;;;22.30;68.20;;;;;;5015397;28;20508;-78
2023/05/20 10:23:50;;;;;;;10.15;6.10;;;22.40;67.90;;;;;;5014586;28;20037;-78
2023/05/20 10:26:16;;;;;;;8.25;6.03;;;22.40;67.90;;;;;;5015218;28;20025;-77
2023/05/20 10:28:42;;;;;;;7.38;5.80;;;22.60;68.10;;;;;;5015064;28;20030;-80
2023/05/20 10:31:21;;;;;;;12.27;6.13;;;22.70;67.50;;;;;;5015577;28;20501;-80
2023/05/20 10:33:47;;;;;;;10.15;6.00;;;22.80;67.30;;;;;;5015038;28;20046;-80
2023/05/20 10:36:26;;;;;;;11.00;6.15;;;22.80;66.60;;;;;;5015274;28;20026;-82
2023/05/20 10:38:54;;;;;;;7.18;5.60;;;22.90;65.50;;;;;;5015199;28;20489;-81
2023/05/20 10:41:22;;;;;;;9.65;6.10;;;22.80;65.00;;;;;;5014996;28;20022;-82
2023/05/20 10:44:02;;;;;;;10.32;5.90;;;22.80;65.10;;;;;;5014994;28;20485;-82
2023/05/20 10:46:29;;;;;;;8.80;5.22;;;22.80;65.20;;;;;;5015588;28;20497;-80
2023/05/20 10:48:55;;;;;;;9.55;6.00;;;22.80;65.10;;;;;;5014327;28;20033;-83
2023/05/20 10:51:21;;;;;;;9.27;5.65;;;22.80;65.00;;;;;;4996845;28;20486;-84
2023/05/20 10:53:46;;;;;;;10.00;5.95;;;22.70;65.60;;;;;;5014755;28;20083;-79
2023/05/20 10:56:23;;;;;;;6.78;5.70;;;22.80;65.10;;;;;;5014746;28;20080;-79
2023/05/20 10:58:49;;;;;;;9.57;5.88;;;22.80;64.30;;;;;;5014756;28;20037;-79
2023/05/20 11:01:17;;;;;;;8.43;5.90;;;22.80;63.90;;;;;;4997216;28;20026;-80
2023/05/20 11:03:47;;;;;;;9.20;5.75;;;22.80;64.20;;;;;;5014543;28;20053;-79
2023/05/20 11:06:14;;;;;;;7.40;5.22;;;22.90;64.80;;;;;;5014597;28;20022;-80
2023/05/20 11:08:41;;;;;;;6.50;5.45;;;22.90;64.70;;;;;;5015571;28;20034;-78
2023/05/20 11:11:07;;;;;;;6.55;5.93;;;22.90;64.50;;;;;;5015503;28;20360;-79
2023/05/20 11:13:35;;;;;;;13.63;5.75;;;23.00;64.40;;;;;;5013082;28;20044;-80
2023/05/20 11:16:01;;;;;;;9.48;5.80;;;23.00;64.60;;;;;;5012722;28;20026;-78
2023/05/20 11:18:51;;;;;;;11.15;5.65;;;23.00;63.80;;;;;;5014303;28;20033;-78
2023/05/20 11:21:20;;;;;;;8.45;5.68;;;23.00;63.70;;;;;;5008235;28;20041;-79
2023/05/20 11:24:09;;;;;;;9.75;6.43;;;23.00;63.00;;;;;;5023202;28;20388;-79
2023/05/20 11:29:49;;;;;;;9.18;6.13;;;23.00;63.40;;;;;;4949945;28;20031;-80
2023/05/20 11:39:38;;;;;;;10.32;5.80;;;23.10;64.00;;;;;;4916847;29;20050;-80
2023/05/20 11:42:10;;;;;;;11.90;5.93;;;23.10;64.20;;;;;;4932421;29;20136;-80
2023/05/20 11:44:37;;;;;;;;;;;23.10;63.40;;;;;;4934393;29;20454;-80
2023/05/20 11:47:43;;;;;;;6.57;5.40;;;23.10;63.40;;;;;;4950029;29;20001;-80
2023/05/20 11:50:48;;;;;;;8.52;5.80;;;23.20;62.00;;;;;;4953024;29;20373;-81
2023/05/20 11:53:16;;;;;;;9.63;6.07;;;23.20;62.40;;;;;;4957665;28;20376;-81
2023/05/20 11:55:51;;;;;;;9.52;5.88;;;23.30;62.90;;;;;;4973971;28;20401;-81
2023/05/20 11:58:24;;;;;;;8.02;5.60;;;23.30;63.50;;;;;;4990379;28;20406;-81
2023/05/20 12:00:50;;;;;;;8.90;5.93;;;23.40;61.20;;;;;;4994178;28;20408;-82
2023/05/20 12:03:16;;;;;;;8.35;5.85;;;23.60;61.10;;;;;;4993871;28;20026;-81
2023/05/20 12:05:42;;;;;;;11.18;5.40;;;23.60;61.70;;;;;;4976215;28;20037;-81
2023/05/20 12:08:08;;;;;;;12.18;5.93;;;23.70;61.30;;;;;;4993725;28;20050;-82
2023/05/20 12:10:36;;;;;;;11.27;5.55;;;23.80;58.80;;;;;;4993824;28;20109;-81
2023/05/20 12:13:02;;;;;;;7.97;5.13;;;24.00;60.70;;;;;;4993507;28;20533;-81
2023/05/20 12:15:29;;;;;;;11.15;6.47;;;24.10;58.70;;;;;;4993550;28;20471;-80
2023/05/20 12:17:55;;;;;;;7.88;5.75;;;24.20;58.80;;;;;;4993439;28;20042;-79
2023/05/20 12:20:22;;;;;;;6.45;5.63;;;24.40;59.20;;;;;;4993400;28;20549;-79
2023/05/20 12:22:48;;;;;;;9.25;5.53;;;24.50;58.50;;;;;;4992350;28;20386;-80
2023/05/20 12:25:17;;;;;;;8.85;5.45;;;24.50;58.50;;;;;;4970102;28;20023;-80
2023/05/20 12:27:47;;;;;;;8.68;5.82;;;24.70;58.00;;;;;;4983104;28;20386;-80
2023/05/20 12:30:18;;;;;;;10.30;6.10;;;24.70;57.20;;;;;;4972260;28;20412;-80
2023/05/20 12:32:45;;;;;;;9.80;5.90;;;24.80;57.40;;;;;;4985320;28;20022;-79
2023/05/20 12:35:11;;;;;;;9.77;5.43;;;24.80;56.10;;;;;;5012495;28;20080;-80
2023/05/20 12:37:40;;;;;;;9.77;5.68;;;24.80;55.60;;;;;;5012610;28;20073;-78
2023/05/20 12:40:07;;;;;;;9.70;5.95;;;24.80;55.70;;;;;;5012869;28;20022;-80
2023/05/20 12:42:35;;;;;;;8.63;5.65;;;24.70;54.60;;;;;;5013225;28;20076;-80
2023/05/20 12:45:01;;;;;;;5.82;4.97;;;24.60;55.10;;;;;;5013123;28;20029;-79
2023/05/20 12:47:27;;;;;;;11.65;5.68;;;24.50;55.70;;;;;;5012711;28;20026;-79
2023/05/20 12:49:53;;;;;;;8.88;5.57;;;24.50;56.20;;;;;;5012685;28;20091;-79
2023/05/20 12:52:18;;;;;;;9.07;5.07;;;24.40;56.20;;;;;;5012354;28;20030;-77
2023/05/20 12:54:45;;;;;;;9.25;5.72;;;24.40;55.90;;;;;;5012612;28;20026;-82
2023/05/20 12:57:11;;;;;;;10.88;6.35;;;24.40;55.60;;;;;;5014101;28;20045;-81
2023/05/20 12:59:37;;;;;;;12.98;6.30;;;24.30;55.50;;;;;;5017215;28;20033;-82
2023/05/20 13:02:03;;;;;;;9.50;6.57;;;24.40;56.40;;;;;;5017829;28;20390;-84
2023/05/20 13:04:29;;;;;;;9.35;6.50;;;24.30;56.10;;;;;;5017784;28;20382;-82
2023/05/20 13:06:55;;;;;;;7.30;5.88;;;24.40;56.60;;;;;;5017815;28;20025;-82
2023/05/20 13:10:01;;;;;;;10.13;6.72;;;24.40;55.10;;;;;;5017714;28;20018;-82